Time;durP1;ratioP1;P1;durP2;ratioP2;P2;SDS_P1;SDS_P2;PMS_P1;PMS_P2;Temp;Humidity;BMP_temperature;BMP_pressure;BME280_temperature;BME280_humidity;BME280_pressure;Samples;Min_cycle;Max_cycle;Signal;HPM_P1;HPM_P2
2022/08/23 00:02:02;;;;;;;8.93;6.00;;;16.90;99.90;;;;;;5035543;28;20045;-85
2022/08/23 00:04:35;;;;;;;8.25;5.63;;;16.80;99.90;;;;;;5042968;28;20055;-79
2022/08/23 00:07:01;;;;;;;8.57;5.78;;;16.80;99.90;;;;;;5054070;28;20121;-83
2022/08/23 00:09:28;;;;;;;9.82;6.38;;;16.80;99.90;;;;;;5034283;28;20051;-85
2022/08/23 00:12:07;;;;;;;9.65;7.35;;;16.90;99.90;;;;;;5050587;28;20076;-81
2022/08/23 00:14:36;;;;;;;7.78;6.38;;;16.80;99.90;;;;;;5037730;28;20481;-83
2022/08/23 00:17:05;;;;;;;11.80;5.43;;;16.80;99.90;;;;;;5058519;28;20397;-84
2022/08/23 00:19:31;;;;;;;9.13;6.07;;;16.70;99.90;;;;;;5034303;28;20040;-83
2022/08/23 00:21:57;;;;;;;8.80;6.57;;;16.80;99.90;;;;;;5052392;28;20037;-82
2022/08/23 00:24:25;;;;;;;7.43;6.00;;;16.80;99.90;;;;;;5053354;28;20519;-79
2022/08/23 00:26:56;;;;;;;7.75;6.93;;;16.70;99.90;;;;;;5038618;28;20569;-82
2022/08/23 00:29:26;;;;;;;8.70;6.40;;;16.70;99.90;;;;;;5052748;28;20072;-81
2022/08/23 00:31:52;;;;;;;10.93;6.40;;;16.70;99.90;;;;;;5047149;28;20033;-80
2022/08/23 00:34:18;;;;;;;8.40;7.05;;;16.80;99.90;;;;;;5067636;28;20189;-82
2022/08/23 00:36:44;;;;;;;9.13;6.40;;;16.80;99.90;;;;;;5053160;28;20102;-78
2022/08/23 00:39:10;;;;;;;9.95;7.63;;;16.80;99.90;;;;;;5068697;28;20472;-81
2022/08/23 00:41:36;;;;;;;10.32;8.13;;;16.80;99.90;;;;;;5045383;28;20041;-80
2022/08/23 00:49:39;;;;;;;11.88;8.07;;;16.90;99.90;;;;;;5056391;28;20404;-79
2022/08/23 00:52:51;;;;;;;10.70;8.43;;;16.90;99.90;;;;;;5044704;28;20036;-81
2022/08/23 00:55:19;;;;;;;10.55;8.32;;;17.10;99.90;;;;;;5001838;28;20041;-82
2022/08/23 00:57:46;;;;;;;9.25;8.20;;;17.00;99.90;;;;;;5049683;28;20393;-80
2022/08/23 01:00:13;;;;;;;9.52;7.90;;;17.00;99.90;;;;;;5030130;28;20048;-81
2022/08/23 01:02:47;;;;;;;10.13;7.85;;;17.10;99.90;;;;;;5063870;28;20071;-82
2022/08/23 01:05:13;;;;;;;12.70;7.93;;;17.00;99.90;;;;;;5078656;28;20044;-82
2022/08/23 01:07:53;;;;;;;9.13;7.70;;;17.10;99.90;;;;;;5060742;28;20393;-84
2022/08/23 01:10:36;;;;;;;9.82;7.80;;;17.00;99.90;;;;;;5036751;28;20048;-84
2022/08/23 01:13:11;;;;;;;11.60;8.60;;;17.00;99.90;;;;;;5044357;28;20043;-82
2022/08/23 01:15:51;;;;;;;11.73;8.30;;;16.90;99.90;;;;;;5053156;28;20044;-81
2022/08/23 01:18:22;;;;;;;9.57;8.23;;;16.90;99.90;;;;;;5062974;28;20041;-82
2022/08/23 01:21:13;;;;;;;8.98;7.43;;;16.90;99.90;;;;;;5053667;28;20040;-82
2022/08/23 01:23:41;;;;;;;8.32;7.45;;;16.80;99.90;;;;;;5057957;28;20052;-84
2022/08/23 01:26:08;;;;;;;11.10;8.15;;;16.80;99.90;;;;;;5073674;28;20412;-83
2022/08/23 01:28:34;;;;;;;10.80;7.80;;;16.80;99.90;;;;;;5055666;28;20044;-83
2022/08/23 01:31:01;;;;;;;9.43;8.05;;;16.70;99.90;;;;;;5039267;28;20067;-81
2022/08/23 01:33:27;;;;;;;9.75;8.05;;;16.70;99.90;;;;;;5053829;28;20084;-83
2022/08/23 01:35:56;;;;;;;9.75;8.75;;;16.70;99.90;;;;;;5035046;28;20036;-82
2022/08/23 01:38:23;;;;;;;9.32;8.27;;;16.70;99.90;;;;;;5061528;28;20036;-83
2022/08/23 01:40:49;;;;;;;8.40;7.18;;;16.80;99.90;;;;;;5036852;28;20083;-83
2022/08/23 01:43:18;;;;;;;8.98;8.07;;;16.70;99.90;;;;;;5053581;28;20067;-81
2022/08/23 01:45:45;;;;;;;9.27;8.25;;;16.70;99.90;;;;;;5049191;28;20037;-82
2022/08/23 01:48:11;;;;;;;10.05;9.00;;;16.60;99.90;;;;;;5067891;28;20037;-82
2022/08/23 01:50:37;;;;;;;9.75;8.70;;;16.60;99.90;;;;;;5051314;28;20044;-83
2022/08/23 01:53:03;;;;;;;12.40;9.07;;;16.70;99.90;;;;;;5039665;28;20041;-83
2022/08/23 01:55:29;;;;;;;13.15;9.52;;;16.70;99.90;;;;;;5052085;28;20044;-83
2022/08/23 01:57:58;;;;;;;11.30;9.93;;;16.70;99.90;;;;;;5059276;28;20041;-81
2022/08/23 02:00:34;;;;;;;13.55;10.23;;;16.70;99.90;;;;;;5069325;28;20051;-81
2022/08/23 02:03:01;;;;;;;14.35;9.50;;;16.80;99.90;;;;;;5042899;28;20096;-81
2022/08/23 02:05:28;;;;;;;12.55;10.48;;;16.90;99.90;;;;;;5049758;28;20037;-81
2022/08/23 02:07:54;;;;;;;13.77;10.32;;;16.90;99.90;;;;;;5042377;28;20045;-82
2022/08/23 02:10:21;;;;;;;12.57;10.45;;;17.00;99.90;;;;;;5018212;28;20051;-84
2022/08/23 02:12:49;;;;;;;14.13;11.82;;;17.10;99.90;;;;;;5063457;28;20120;-82
2022/08/23 02:15:16;;;;;;;12.60;11.23;;;17.10;99.90;;;;;;5022836;28;20036;-83
2022/08/23 02:17:43;;;;;;;12.93;11.27;;;17.20;99.90;;;;;;5052957;28;20037;-83
2022/08/23 02:20:09;;;;;;;12.93;11.30;;;17.20;99.90;;;;;;5052433;28;20485;-83
2022/08/23 02:22:38;;;;;;;14.27;9.55;;;17.20;99.90;;;;;;5048405;28;20477;-80
2022/08/23 02:25:05;;;;;;;11.88;9.90;;;17.00;99.90;;;;;;5051849;28;20052;-79
2022/08/23 02:27:31;;;;;;;10.85;8.35;;;17.00;99.90;;;;;;5031404;28;20415;-80
2022/08/23 02:29:57;;;;;;;8.60;7.57;;;16.90;99.90;;;;;;5035983;28;20044;-82
2022/08/23 02:32:22;;;;;;;9.25;7.95;;;16.60;99.90;;;;;;5020185;28;20072;-84
2022/08/23 02:34:48;;;;;;;22.90;3.85;;;16.40;99.90;;;;;;5032779;28;20080;-81
2022/08/23 02:37:14;;;;;;;3.55;3.25;;;16.30;99.90;;;;;;5035498;28;20049;-82
2022/08/23 02:39:41;;;;;;;6.30;4.68;;;16.20;99.90;;;;;;5039091;28;20048;-82
2022/08/23 02:42:07;;;;;;;4.38;3.90;;;16.00;99.90;;;;;;5055709;28;20040;-83
2022/08/23 02:44:34;;;;;;;4.45;4.07;;;15.90;99.90;;;;;;5056134;28;20131;-83
2022/08/23 02:47:01;;;;;;;4.95;4.55;;;15.90;99.90;;;;;;5021183;28;20068;-83
2022/08/23 02:49:28;;;;;;;4.57;4.18;;;16.00;99.90;;;;;;5035850;28;20045;-83
2022/08/23 02:51:54;;;;;;;5.40;4.53;;;16.00;99.90;;;;;;5050388;28;20047;-81
2022/08/23 02:54:20;;;;;;;4.47;4.07;;;16.00;99.90;;;;;;5044582;28;20036;-83
2022/08/23 02:56:46;;;;;;;7.18;4.50;;;15.90;99.90;;;;;;5040902;28;20052;-83
2022/08/23 02:59:12;;;;;;;6.22;5.72;;;15.90;99.90;;;;;;5055891;28;20043;-83
2022/08/23 03:01:38;;;;;;;8.07;7.18;;;15.20;99.90;;;;;;5035872;28;20036;-83
2022/08/23 03:04:08;;;;;;;14.52;10.10;;;16.40;99.90;;;;;;5038033;28;20055;-84
2022/08/23 03:06:35;;;;;;;13.70;10.65;;;16.60;99.90;;;;;;5046498;28;20468;-83
2022/08/23 03:09:02;;;;;;;15.57;12.02;;;16.70;99.90;;;;;;5052762;28;20132;-83
2022/08/23 03:11:28;;;;;;;15.88;12.32;;;16.90;99.90;;;;;;5055028;28;20033;-84
2022/08/23 03:13:55;;;;;;;12.05;10.85;;;17.00;99.90;;;;;;5043784;28;20430;-81
2022/08/23 03:16:21;;;;;;;13.25;11.15;;;17.10;99.90;;;;;;5039310;28;20117;-79
2022/08/23 03:18:48;;;;;;;13.05;11.68;;;17.10;99.90;;;;;;5053557;28;20037;-79
2022/08/23 03:21:14;;;;;;;10.73;9.30;;;17.10;99.90;;;;;;5058484;28;20136;-80
2022/08/23 03:23:41;;;;;;;10.02;8.20;;;16.90;99.90;;;;;;5054060;28;20098;-79
2022/08/23 03:26:09;;;;;;;8.55;7.70;;;16.60;99.90;;;;;;5054557;28;20048;-79
2022/08/23 03:28:36;;;;;;;8.55;7.57;;;16.30;99.90;;;;;;5037698;28;20566;-81
2022/08/23 03:31:03;;;;;;;7.55;6.85;;;16.20;99.90;;;;;;5035408;28;20398;-81
2022/08/23 03:33:29;;;;;;;8.43;7.40;;;16.10;99.90;;;;;;5029807;28;20439;-81
2022/08/23 03:36:02;;;;;;;7.95;6.97;;;16.10;99.90;;;;;;5047622;28;20036;-78
2022/08/23 03:38:28;;;;;;;6.53;5.93;;;15.90;99.90;;;;;;5058308;28;20396;-79
2022/08/23 03:40:54;;;;;;;5.45;5.05;;;15.80;99.90;;;;;;5024674;28;20197;-80
2022/08/23 03:43:20;;;;;;;6.00;5.50;;;15.70;99.90;;;;;;5051655;28;20493;-82
2022/08/23 03:45:46;;;;;;;5.30;4.80;;;15.40;99.90;;;;;;5038214;28;20068;-83
2022/08/23 03:48:12;;;;;;;4.65;4.22;;;15.20;99.90;;;;;;5037840;28;20400;-83
2022/08/23 03:50:38;;;;;;;4.13;3.72;;;15.20;99.90;;;;;;5054214;28;20032;-84
2022/08/23 03:53:04;;;;;;;4.07;3.33;;;15.10;99.90;;;;;;5036201;28;20047;-84
2022/08/23 03:55:30;;;;;;;6.07;5.10;;;15.10;99.90;;;;;;5039726;28;20045;-82
2022/08/23 03:57:56;;;;;;;5.18;4.75;;;15.20;99.90;;;;;;5034459;28;20059;-83
2022/08/23 04:00:22;;;;;;;6.03;5.43;;;15.30;99.90;;;;;;5019073;28;20052;-82
2022/08/23 04:02:48;;;;;;;6.68;5.78;;;15.40;99.90;;;;;;5051353;28;20122;-80
2022/08/23 04:05:14;;;;;;;6.88;6.25;;;15.40;99.90;;;;;;5024118;28;20048;-82
2022/08/23 04:07:40;;;;;;;7.63;6.93;;;15.50;99.90;;;;;;5037289;28;20036;-80
2022/08/23 04:10:08;;;;;;;10.85;9.73;;;15.60;99.90;;;;;;5037952;28;20127;-80
2022/08/23 04:12:34;;;;;;;9.57;8.00;;;15.60;99.90;;;;;;5042087;28;20044;-83
2022/08/23 04:15:00;;;;;;;12.07;10.77;;;15.60;99.90;;;;;;5021381;28;20068;-82
2022/08/23 04:17:27;;;;;;;9.80;8.80;;;15.70;99.90;;;;;;5066652;28;20041;-82
2022/08/23 04:19:53;;;;;;;12.13;10.88;;;15.70;99.90;;;;;;5031047;28;20120;-82
2022/08/23 04:22:19;;;;;;;12.15;10.73;;;15.80;99.90;;;;;;5050746;28;20140;-83
2022/08/23 04:24:45;;;;;;;11.57;10.38;;;16.10;99.90;;;;;;5050774;28;20104;-80
2022/08/23 04:27:12;;;;;;;9.98;9.10;;;16.20;99.90;;;;;;5034579;28;20045;-79
2022/08/23 04:29:38;;;;;;;12.30;10.65;;;16.40;99.90;;;;;;5048451;28;20045;-82
2022/08/23 04:32:06;;;;;;;11.73;10.25;;;16.40;99.90;;;;;;5037390;28;20095;-83
2022/08/23 04:34:34;;;;;;;11.80;10.57;;;16.50;99.90;;;;;;5048525;28;20033;-82
2022/08/23 04:37:00;;;;;;;11.90;10.73;;;16.60;99.90;;;;;;5061954;28;20036;-82
2022/08/23 04:39:26;;;;;;;12.20;10.98;;;16.60;99.90;;;;;;5037105;28;20650;-83
2022/08/23 04:44:36;;;;;;;11.05;10.05;;;16.60;99.90;;;;;;5054605;28;20041;-81
2022/08/23 04:47:02;;;;;;;12.48;11.20;;;16.70;99.90;;;;;;5044290;28;20132;-85
2022/08/23 04:49:28;;;;;;;12.75;11.45;;;16.60;99.90;;;;;;5043772;28;20044;-82
2022/08/23 04:51:54;;;;;;;12.70;11.43;;;16.60;99.90;;;;;;5042832;28;20046;-83
2022/08/23 04:54:21;;;;;;;13.63;12.32;;;16.70;99.90;;;;;;5067605;28;20390;-83
2022/08/23 04:56:47;;;;;;;14.77;13.30;;;16.70;99.90;;;;;;5018559;28;20029;-82
2022/08/23 04:59:13;;;;;;;16.45;13.75;;;16.70;99.90;;;;;;5046733;28;20040;-82
2022/08/23 05:01:41;;;;;;;14.95;13.40;;;16.70;99.90;;;;;;5044718;28;20337;-81
2022/08/23 05:04:07;;;;;;;17.20;13.65;;;16.80;99.90;;;;;;5050873;28;20083;-82
2022/08/23 05:06:34;;;;;;;15.75;13.40;;;16.80;99.90;;;;;;5033306;28;20048;-79
2022/08/23 05:09:00;;;;;;;17.80;14.35;;;16.90;99.90;;;;;;5049849;28;20063;-82
2022/08/23 05:11:27;;;;;;;17.95;15.27;;;16.90;99.90;;;;;;5062016;28;20036;-83
2022/08/23 05:13:53;;;;;;;16.35;14.65;;;16.80;99.90;;;;;;5052983;28;20036;-82
2022/08/23 05:16:18;;;;;;;16.60;14.93;;;16.90;99.90;;;;;;5020686;28;20477;-81
2022/08/23 05:18:44;;;;;;;16.70;15.02;;;17.00;99.90;;;;;;5018119;28;20033;-83
2022/08/23 05:21:19;;;;;;;17.23;14.95;;;17.00;99.90;;;;;;5052179;28;20032;-84
2022/08/23 05:23:45;;;;;;;18.13;14.90;;;17.10;99.90;;;;;;5038426;28;20102;-81
2022/08/23 05:26:11;;;;;;;18.58;15.80;;;17.10;99.90;;;;;;5053242;28;20040;-84
2022/08/23 05:28:41;;;;;;;21.80;16.80;;;17.20;99.90;;;;;;5037244;28;20040;-80
2022/08/23 05:31:16;;;;;;;17.15;15.55;;;17.30;99.90;;;;;;5039405;28;20068;-82
2022/08/23 05:33:42;;;;;;;;;;;17.30;99.90;;;;;;5033693;28;20037;-83
2022/08/23 05:36:10;;;;;;;18.08;16.13;;;17.40;99.90;;;;;;5034885;28;19927;-82
2022/08/23 05:38:37;;;;;;;18.52;16.02;;;17.40;99.90;;;;;;5056571;28;20037;-82
2022/08/23 05:41:03;;;;;;;19.38;17.25;;;17.40;99.90;;;;;;5035112;28;20072;-83
2022/08/23 05:43:30;;;;;;;17.88;16.08;;;17.40;99.90;;;;;;5078499;28;20032;-82
2022/08/23 05:46:09;;;;;;;17.88;15.98;;;17.50;99.90;;;;;;5073122;28;20071;-83
2022/08/23 05:48:36;;;;;;;21.83;16.75;;;17.60;99.90;;;;;;5048058;28;20052;-83
2022/08/23 05:51:17;;;;;;;18.75;16.85;;;17.40;99.90;;;;;;5055147;28;20102;-82
2022/08/23 05:53:45;;;;;;;19.58;15.85;;;17.50;99.90;;;;;;5036611;28;20037;-83
2022/08/23 05:56:22;;;;;;;19.27;15.63;;;17.40;99.90;;;;;;5054085;28;20072;-83
2022/08/23 05:58:50;;;;;;;17.40;15.55;;;17.60;99.90;;;;;;5054100;28;20056;-82
2022/08/23 06:01:17;;;;;;;21.13;16.50;;;17.50;99.90;;;;;;5064522;28;20043;-84
2022/08/23 06:03:43;;;;;;;21.15;17.17;;;17.40;99.90;;;;;;5036941;28;20084;-84
2022/08/23 06:06:16;;;;;;;17.88;16.00;;;17.50;99.90;;;;;;5021245;28;20127;-84
2022/08/23 06:08:45;;;;;;;18.53;16.83;;;17.50;99.90;;;;;;5037037;28;20064;-86
2022/08/23 06:11:22;;;;;;;18.02;16.08;;;17.60;99.90;;;;;;5037293;28;20068;-83
2022/08/23 06:14:00;;;;;;;18.27;16.40;;;17.60;99.90;;;;;;5031006;28;20040;-85
2022/08/23 06:16:39;;;;;;;18.58;16.05;;;17.90;99.90;;;;;;5066989;28;20544;-84
2022/08/23 06:19:06;;;;;;;18.17;15.55;;;18.00;99.90;;;;;;5073311;28;20115;-81
2022/08/23 06:21:35;;;;;;;19.63;15.82;;;18.10;99.90;;;;;;5040046;28;20105;-84
2022/08/23 06:24:01;;;;;;;18.38;16.42;;;18.20;99.90;;;;;;5023597;28;20527;-83
2022/08/23 06:26:34;;;;;;;21.27;16.15;;;18.20;99.90;;;;;;5050181;28;20102;-84
2022/08/23 06:29:06;;;;;;;18.05;15.48;;;18.40;99.90;;;;;;5073089;28;20117;-81
2022/08/23 06:31:44;;;;;;;17.75;15.90;;;18.40;99.90;;;;;;5054128;28;20040;-84
2022/08/23 06:34:26;;;;;;;17.10;15.38;;;18.40;99.90;;;;;;5053050;28;20036;-77
2022/08/23 06:36:54;;;;;;;17.23;15.25;;;18.40;99.90;;;;;;5052807;28;20864;-73
2022/08/23 06:39:23;;;;;;;16.90;15.18;;;18.50;99.90;;;;;;5054288;28;20045;-81
2022/08/23 06:41:50;;;;;;;18.83;15.15;;;18.50;99.90;;;;;;5055725;28;20045;-82
2022/08/23 06:44:17;;;;;;;17.13;15.43;;;18.60;99.90;;;;;;5050545;28;20040;-84
2022/08/23 06:46:43;;;;;;;17.08;14.55;;;18.60;99.90;;;;;;5072582;28;20040;-85
2022/08/23 06:49:10;;;;;;;18.10;14.63;;;18.70;99.90;;;;;;5040405;28;20127;-81
2022/08/23 06:51:40;;;;;;;15.88;14.15;;;18.80;99.90;;;;;;5072457;28;20036;-83
2022/08/23 06:54:08;;;;;;;17.63;14.35;;;18.80;99.90;;;;;;5070995;28;20512;-80
2022/08/23 06:56:35;;;;;;;16.27;14.68;;;18.90;99.90;;;;;;5066364;28;20032;-84
2022/08/23 06:59:04;;;;;;;16.38;14.70;;;19.00;99.90;;;;;;5056607;28;20374;-85
2022/08/23 07:01:48;;;;;;;15.77;14.18;;;18.90;99.90;;;;;;5056905;28;20392;-82
2022/08/23 07:04:20;;;;;;;15.60;14.20;;;18.90;99.90;;;;;;5058240;28;20052;-80
2022/08/23 07:06:46;;;;;;;16.00;13.77;;;19.00;99.90;;;;;;5056401;28;20137;-86
2022/08/23 07:09:13;;;;;;;16.70;13.43;;;19.10;99.90;;;;;;5039990;28;20048;-86
2022/08/23 07:11:40;;;;;;;14.65;13.20;;;19.10;99.90;;;;;;5056130;28;20063;-81
2022/08/23 07:14:09;;;;;;;13.80;12.55;;;19.20;99.90;;;;;;5049816;28;20076;-80
2022/08/23 07:16:40;;;;;;;14.70;12.75;;;19.30;99.90;;;;;;5038081;28;20397;-83
2022/08/23 07:19:07;;;;;;;13.82;12.32;;;19.30;99.90;;;;;;5072673;28;20036;-81
2022/08/23 07:21:34;;;;;;;14.02;12.57;;;19.30;99.90;;;;;;5052082;28;20175;-82
2022/08/23 07:24:01;;;;;;;12.80;11.50;;;19.60;99.90;;;;;;5044539;28;20057;-81
2022/08/23 07:26:27;;;;;;;12.77;11.50;;;19.70;99.90;;;;;;5059101;28;20041;-82
2022/08/23 07:28:54;;;;;;;13.85;11.48;;;19.70;99.90;;;;;;5035882;28;20045;-84
2022/08/23 07:31:27;;;;;;;12.55;11.38;;;19.90;99.90;;;;;;5036619;28;20044;-82
2022/08/23 07:33:55;;;;;;;12.90;11.68;;;19.90;99.90;;;;;;5049708;28;20094;-81
2022/08/23 07:36:23;;;;;;;11.57;10.52;;;20.10;99.90;;;;;;5055781;28;20119;-83
2022/08/23 07:38:49;;;;;;;13.93;10.10;;;20.20;99.90;;;;;;5043484;28;20059;-81
2022/08/23 07:41:16;;;;;;;12.40;10.05;;;19.80;99.90;;;;;;5019734;28;20366;-80
2022/08/23 07:43:42;;;;;;;11.43;10.27;;;20.20;99.90;;;;;;5062406;28;20044;-81
2022/08/23 07:46:09;;;;;;;11.48;9.48;;;20.30;99.90;;;;;;5034614;28;20455;-83
2022/08/23 07:48:35;;;;;;;10.77;9.68;;;20.50;99.90;;;;;;5046342;28;20048;-84
2022/08/23 07:51:05;;;;;;;10.20;9.20;;;20.60;99.90;;;;;;5040834;28;20669;-82
2022/08/23 07:53:32;;;;;;;10.52;9.45;;;20.60;99.90;;;;;;5059315;28;20064;-82
2022/08/23 07:55:58;;;;;;;10.80;9.02;;;20.70;99.90;;;;;;5066142;28;20486;-83
2022/08/23 07:58:25;;;;;;;11.77;8.15;;;20.80;99.90;;;;;;5035155;28;20052;-81
2022/08/23 08:00:52;;;;;;;9.45;7.65;;;20.90;99.90;;;;;;5033011;28;20044;-82
2022/08/23 08:03:27;;;;;;;9.27;7.40;;;21.00;99.90;;;;;;5071463;28;20090;-82
2022/08/23 08:05:59;;;;;;;9.10;7.82;;;21.20;99.90;;;;;;5055128;28;20044;-83
2022/08/23 08:08:25;;;;;;;8.75;7.47;;;21.20;99.90;;;;;;5054164;28;20045;-82
2022/08/23 08:10:53;;;;;;;10.10;7.68;;;21.30;99.90;;;;;;5037392;28;20056;-80
2022/08/23 08:13:19;;;;;;;13.02;7.00;;;21.40;99.90;;;;;;5038139;28;20124;-82
2022/08/23 08:15:45;;;;;;;7.60;6.90;;;21.50;99.90;;;;;;5020410;28;20482;-81
2022/08/23 08:18:10;;;;;;;8.65;6.60;;;21.50;99.90;;;;;;5054436;28;20596;-81
2022/08/23 08:20:36;;;;;;;8.55;6.80;;;21.60;99.90;;;;;;5021137;28;20036;-80
2022/08/23 08:23:03;;;;;;;8.13;6.78;;;21.60;99.90;;;;;;5037784;28;20396;-81
2022/08/23 08:25:32;;;;;;;7.30;6.47;;;21.60;99.90;;;;;;5037817;28;20047;-81
2022/08/23 08:27:58;;;;;;;9.20;6.22;;;21.60;99.90;;;;;;5038364;28;20408;-80
2022/08/23 08:30:24;;;;;;;8.25;6.50;;;21.70;99.90;;;;;;5037625;28;20048;-81
2022/08/23 08:32:50;;;;;;;8.38;7.25;;;21.80;99.90;;;;;;5070586;28;20036;-83
2022/08/23 08:35:15;;;;;;;7.78;6.97;;;21.90;99.90;;;;;;5037959;28;20032;-84
2022/08/23 08:37:41;;;;;;;8.73;6.90;;;22.00;99.90;;;;;;5053994;28;20469;-80
2022/08/23 08:40:07;;;;;;;7.50;6.75;;;22.10;99.90;;;;;;5037654;28;20043;-84
2022/08/23 08:42:48;;;;;;;8.05;7.25;;;22.20;99.90;;;;;;5037358;28;20040;-81
2022/08/23 08:45:26;;;;;;;6.97;6.18;;;22.30;99.90;;;;;;5054156;28;20127;-81
2022/08/23 08:48:01;;;;;;;8.43;6.22;;;22.50;99.90;;;;;;5053658;28;20097;-84
2022/08/23 08:50:37;;;;;;;9.43;6.47;;;22.70;99.90;;;;;;5053637;28;20048;-83
2022/08/23 08:53:15;;;;;;;14.88;6.47;;;22.80;99.90;;;;;;5053839;28;20040;-82
2022/08/23 08:55:48;;;;;;;7.53;6.82;;;22.80;99.90;;;;;;5069932;28;20051;-80
2022/08/23 08:58:25;;;;;;;9.63;7.63;;;22.80;99.90;;;;;;5061495;28;20036;-79
2022/08/23 09:00:51;;;;;;;6.82;6.18;;;23.00;99.90;;;;;;5055917;28;20664;-81
2022/08/23 09:03:19;;;;;;;6.63;6.03;;;23.00;99.90;;;;;;5075049;28;20088;-82
2022/08/23 09:06:06;;;;;;;6.50;5.57;;;23.20;99.90;;;;;;5093142;28;20020;-82
2022/08/23 09:08:50;;;;;;;8.52;6.20;;;23.30;99.90;;;;;;5058088;28;20032;-82
2022/08/23 09:11:26;;;;;;;5.78;5.28;;;23.30;99.90;;;;;;5057586;28;20076;-82
2022/08/23 09:14:34;;;;;;;7.68;5.47;;;23.30;99.90;;;;;;5055599;28;20093;-80
2022/08/23 09:17:09;;;;;;;8.60;5.55;;;23.30;99.90;;;;;;5083007;28;20092;-81
2022/08/23 09:19:37;;;;;;;8.98;6.38;;;23.50;99.90;;;;;;5092740;28;20041;-83
2022/08/23 09:22:15;;;;;;;9.30;6.35;;;23.50;99.90;;;;;;5069109;28;20021;-82
2022/08/23 09:24:42;;;;;;;7.20;5.80;;;23.60;99.90;;;;;;5072319;28;20049;-84
2022/08/23 09:27:09;;;;;;;13.93;7.25;;;23.60;99.90;;;;;;5064973;28;20484;-84
2022/08/23 09:29:38;;;;;;;8.90;6.45;;;23.80;99.90;;;;;;5059753;28;20048;-81
2022/08/23 09:32:23;;;;;;;7.05;5.55;;;23.90;99.90;;;;;;5076199;28;20439;-83
2022/08/23 09:34:50;;;;;;;7.65;5.30;;;24.10;99.90;;;;;;5058606;28;20040;-83
2022/08/23 09:37:22;;;;;;;6.85;6.15;;;24.20;99.90;;;;;;5041819;28;20305;-80
2022/08/23 09:40:30;;;;;;;7.75;6.13;;;24.30;99.90;;;;;;5056617;28;20052;-80
2022/08/23 09:43:02;;;;;;;8.35;6.55;;;24.80;99.90;;;;;;5052253;28;20223;-80
2022/08/23 09:45:34;;;;;;;5.97;5.30;;;25.20;99.90;;;;;;5050871;28;20052;-80
2022/08/23 09:48:00;;;;;;;5.70;5.15;;;25.60;99.90;;;;;;5073097;28;20044;-81
2022/08/23 09:50:37;;;;;;;6.53;4.75;;;25.80;99.90;;;;;;5040680;28;20050;-81
2022/08/23 09:53:21;;;;;;;7.07;4.47;;;25.70;99.90;;;;;;5059076;28;20503;-83
2022/08/23 09:55:51;;;;;;;6.07;4.75;;;25.80;99.90;;;;;;5056554;28;20094;-83
2022/08/23 09:58:33;;;;;;;5.43;4.53;;;26.10;99.90;;;;;;5040437;28;20383;-83
2022/08/23 10:01:08;;;;;;;5.53;4.78;;;26.40;99.90;;;;;;5056453;28;20106;-83
2022/08/23 10:03:33;;;;;;;5.40;4.88;;;26.80;99.90;;;;;;5057048;28;20097;-83
2022/08/23 10:06:02;;;;;;;7.28;5.55;;;26.80;99.90;;;;;;5056337;28;20840;-82
2022/08/23 10:08:34;;;;;;;8.15;5.07;;;27.00;99.90;;;;;;5056992;28;20032;-85
2022/08/23 10:11:19;;;;;;;4.53;4.07;;;27.30;99.90;;;;;;5072948;28;20040;-85
2022/08/23 10:13:45;;;;;;;8.90;4.32;;;27.30;99.90;;;;;;5056674;28;20424;-83
2022/08/23 10:16:20;;;;;;;4.28;3.88;;;27.60;99.90;;;;;;5073049;28;20036;-84
2022/08/23 10:19:14;;;;;;;5.72;3.90;;;27.70;99.90;;;;;;5055296;28;20511;-85
2022/08/23 10:21:49;;;;;;;9.10;3.97;;;27.60;99.90;;;;;;5054666;28;20500;-85
2022/08/23 10:24:29;;;;;;;7.05;4.35;;;27.70;99.90;;;;;;5054484;28;20052;-87
2022/08/23 10:29:35;;;;;;;6.20;5.20;;;27.70;99.90;;;;;;5072175;28;20376;-83
2022/08/23 10:30:03;;;;;;;6.65;4.15;;;27.70;99.70;;;;;;5071481;28;20040;-84
2022/08/23 10:32:54;;;;;;;9.80;4.20;;;27.80;99.00;;;;;;5055256;28;20119;-85
2022/08/23 10:35:30;;;;;;;10.45;4.88;;;27.80;93.10;;;;;;5071801;28;20040;-82
2022/08/23 10:38:08;;;;;;;7.15;4.20;;;27.50;99.90;;;;;;5054605;28;20040;-82
2022/08/23 10:41:19;;;;;;;7.18;4.25;;;27.80;96.90;;;;;;5071989;28;20052;-86
2022/08/23 10:44:12;;;;;;;6.85;4.50;;;27.70;90.70;;;;;;5070845;28;20480;-86
2022/08/23 10:46:46;;;;;;;4.30;3.90;;;28.10;95.90;;;;;;5054857;28;20040;-82
2022/08/23 10:49:14;;;;;;;4.90;3.47;;;27.80;88.10;;;;;;5054611;28;20044;-86
2022/08/23 10:51:44;;;;;;;4.70;2.80;;;28.10;92.80;;;;;;5038523;28;20033;-83
2022/08/23 10:54:28;;;;;;;10.15;3.70;;;28.20;74.50;;;;;;5054826;28;20055;-82
2022/08/23 10:56:56;;;;;;;4.93;2.97;;;28.20;55.90;;;;;;5054775;28;20428;-81
2022/08/23 10:59:26;;;;;;;5.45;3.40;;;28.00;80.10;;;;;;5054860;28;20493;-82
2022/08/23 11:02:24;;;;;;;4.43;2.72;;;28.00;81.30;;;;;;5054512;28;20560;-84
2022/08/23 11:05:16;;;;;;;3.78;2.55;;;28.00;50.40;;;;;;5060664;28;20076;-83
2022/08/23 11:07:54;;;;;;;5.95;2.97;;;28.00;32.70;;;;;;5039352;28;20051;-81
2022/08/23 11:10:47;;;;;;;4.28;2.92;;;28.20;44.40;;;;;;5054488;28;20098;-82
2022/08/23 11:13:33;;;;;;;5.75;2.90;;;27.90;37.80;;;;;;5052902;28;20157;-84
2022/08/23 11:16:24;;;;;;;3.08;2.45;;;28.00;30.00;;;;;;5054474;28;20101;-81
2022/08/23 11:18:50;;;;;;;5.07;2.75;;;28.20;37.40;;;;;;5054647;28;20101;-82
2022/08/23 11:21:16;;;;;;;4.30;2.58;;;28.10;8.40;;;;;;5054667;28;20036;-81
2022/08/23 11:24:11;;;;;;;4.40;3.15;;;28.20;44.00;;;;;;5012437;28;1196176;-84
2022/08/23 11:26:38;;;;;;;3.80;2.95;;;28.20;24.00;;;;;;5036742;28;20084;-83
2022/08/23 11:29:09;;;;;;;5.93;2.90;;;28.30;48.40;;;;;;5071702;28;20039;-84
2022/08/23 11:31:57;;;;;;;3.67;3.00;;;28.30;10.10;;;;;;5055425;28;20389;-83
2022/08/23 11:35:04;;;;;;;4.25;2.85;;;28.80;1.00;;;;;;5072091;28;20037;-84
2022/08/23 11:37:58;;;;;;;4.85;3.90;;;28.50;1.00;;;;;;5050152;28;20451;-84
2022/08/23 11:40:57;;;;;;;6.03;3.50;;;28.50;1.00;;;;;;5055340;28;20041;-83
2022/08/23 11:43:33;;;;;;;8.73;3.47;;;28.60;14.90;;;;;;5071629;28;20048;-83
2022/08/23 11:46:18;;;;;;;4.97;2.80;;;28.40;21.40;;;;;;5054716;28;20486;-84
2022/08/23 11:49:03;;;;;;;10.32;3.75;;;28.40;7.10;;;;;;5054524;28;20040;-82
2022/08/23 11:51:56;;;;;;;6.72;3.70;;;28.10;27.70;;;;;;5054721;28;20059;-84
2022/08/23 11:54:59;;;;;;;3.80;2.97;;;28.20;23.00;;;;;;5071937;28;20048;-84
2022/08/23 11:57:53;;;;;;;5.32;3.22;;;28.40;14.40;;;;;;5071468;28;20507;-84
2022/08/23 12:00:22;;;;;;;4.55;3.10;;;28.50;13.10;;;;;;5070845;28;20149;-84
2022/08/23 12:03:00;;;;;;;3.75;3.30;;;28.30;13.90;;;;;;5054875;28;20067;-86
2022/08/23 12:05:41;;;;;;;3.53;2.85;;;28.40;26.50;;;;;;5054943;28;20048;-83
2022/08/23 12:08:10;;;;;;;6.72;3.25;;;28.50;29.00;;;;;;5054133;28;20546;-83
2022/08/23 12:10:41;;;;;;;3.92;2.92;;;28.60;8.70;;;;;;5070708;28;20048;-82
2022/08/23 12:13:19;;;;;;;6.05;3.10;;;28.80;5.60;;;;;;5070908;28;20123;-82
2022/08/23 12:16:03;;;;;;;5.95;3.88;;;29.00;1.00;;;;;;5054139;28;20036;-81
2022/08/23 12:18:37;;;;;;;;;;;29.20;1.00;;;;;;5054928;28;20036;-83
2022/08/23 12:21:07;;;;;;;;;;;29.10;1.00;;;;;;5054750;28;20626;-83
2022/08/23 12:23:49;;;;;;;4.75;2.58;;;28.80;1.00;;;;;;5070641;28;19978;-83
2022/08/23 12:26:31;;;;;;;3.63;2.67;;;28.70;1.00;;;;;;5054233;28;20044;-83
2022/08/23 12:29:23;;;;;;;3.22;2.45;;;28.90;1.00;;;;;;5054094;28;20103;-85
2022/08/23 12:32:16;;;;;;;6.22;2.58;;;28.90;1.00;;;;;;5054147;28;20040;-83
2022/08/23 12:35:06;;;;;;;3.58;2.38;;;29.00;1.00;;;;;;5053766;28;20052;-85
2022/08/23 12:37:35;;;;;;;7.18;3.10;;;29.00;1.00;;;;;;5053426;28;20389;-84
2022/08/23 12:40:08;;;;;;;4.88;2.70;;;29.00;1.00;;;;;;5053734;28;20040;-84
2022/08/23 12:42:37;;;;;;;4.38;2.78;;;28.70;1.00;;;;;;5053919;28;20040;-82
2022/08/23 12:45:06;;;;;;;5.18;2.35;;;28.40;1.00;;;;;;5070473;28;20119;-84
2022/08/23 12:47:33;;;;;;;4.85;2.40;;;28.20;1.00;;;;;;5053975;28;20046;-82
2022/08/23 12:50:05;;;;;;;7.05;2.88;;;28.10;1.00;;;;;;5036913;28;20040;-83
2022/08/23 12:52:34;;;;;;;7.57;2.80;;;27.90;1.00;;;;;;5053558;28;20040;-82
2022/08/23 12:55:00;;;;;;;4.22;2.60;;;27.90;1.00;;;;;;5053777;28;20032;-82
2022/08/23 12:57:41;;;;;;;4.47;2.47;;;27.80;1.00;;;;;;5053802;28;20036;-82
2022/08/23 13:00:22;;;;;;;4.35;3.20;;;27.90;1.00;;;;;;5053905;28;20036;-82
2022/08/23 13:02:59;;;;;;;4.20;2.80;;;28.00;1.00;;;;;;5070483;28;20382;-83
2022/08/23 13:05:37;;;;;;;4.47;3.00;;;28.20;1.00;;;;;;5053918;28;20603;-82
2022/08/23 13:08:09;;;;;;;10.40;2.75;;;28.50;1.00;;;;;;5053389;28;20044;-83
2022/08/23 13:10:40;;;;;;;7.28;2.83;;;28.80;1.00;;;;;;5070146;28;20099;-81
2022/08/23 13:13:13;;;;;;;3.30;2.58;;;29.30;1.00;;;;;;5070039;28;20036;-82